createdAt,value
2018-08-28T00:00:48.498Z,64.71
2018-08-28T00:03:16.198Z,64.97
2018-08-28T00:05:43.891Z,64.08
2018-08-28T00:08:11.871Z,64.05
2018-08-28T00:10:39.672Z,64.44
2018-08-28T00:13:07.397Z,64.66
2018-08-28T00:15:35.160Z,63.54
2018-08-28T00:18:02.932Z,63.36
2018-08-28T00:20:30.759Z,64.35
2018-08-28T00:22:58.479Z,64.40
2018-08-28T00:25:26.179Z,64.68
2018-08-28T00:27:53.963Z,63.98
2018-08-28T00:30:21.709Z,63.84
2018-08-28T00:32:49.466Z,64.81
2018-08-28T00:35:17.169Z,64.15
2018-08-28T00:37:44.965Z,64.30
2018-08-28T00:40:12.671Z,65.33
2018-08-28T00:42:41.298Z,64.77
2018-08-28T00:45:09.054Z,64.98
2018-08-28T00:47:36.771Z,64.11
2018-08-28T00:50:04.615Z,64.32
2018-08-28T00:52:32.379Z,65.21
2018-08-28T00:55:05.490Z,63.89
2018-08-28T00:57:33.151Z,63.86
2018-08-28T01:00:00.992Z,64.75
2018-08-28T01:02:29.023Z,64.78
2018-08-28T01:04:56.771Z,64.75
2018-08-28T01:07:24.545Z,64.91
2018-08-28T01:09:52.331Z,64.94
2018-08-28T01:12:20.076Z,64.73
2018-08-28T01:14:47.808Z,65.25
2018-08-28T01:17:15.448Z,65.49
2018-08-28T01:19:43.153Z,65.75
2018-08-28T01:22:10.847Z,64.55
2018-08-28T01:24:38.540Z,64.45
2018-08-28T01:27:06.231Z,64.60
2018-08-28T01:29:33.929Z,65.42
2018-08-28T01:32:01.636Z,65.11
2018-08-28T01:34:29.359Z,65.40
2018-08-28T01:36:57.106Z,65.01
2018-08-28T01:39:24.903Z,65.23
2018-08-28T01:41:52.698Z,64.83
2018-08-28T01:44:20.426Z,65.07
2018-08-28T01:46:48.311Z,65.85
2018-08-28T01:49:16.000Z,65.59
2018-08-28T01:51:43.656Z,65.29
2018-08-28T01:54:11.343Z,65.01
2018-08-28T01:56:39.436Z,65.37
2018-08-28T01:59:07.507Z,65.55
2018-08-28T02:01:36.259Z,65.49
2018-08-28T02:04:03.911Z,65.08
2018-08-28T02:06:31.668Z,66.10
2018-08-28T02:08:59.462Z,65.88
2018-08-28T02:11:27.230Z,65.54
2018-08-28T02:13:54.883Z,65.46
2018-08-28T02:16:22.562Z,65.37
2018-08-28T02:18:50.250Z,65.26
2018-08-28T02:21:18.083Z,65.60
2018-08-28T02:23:45.794Z,65.69
2018-08-28T02:26:13.534Z,65.06
2018-08-28T02:28:41.197Z,65.06
2018-08-28T02:31:09.152Z,65.86
2018-08-28T02:33:37.011Z,65.01
2018-08-28T02:36:04.926Z,64.92
2018-08-28T02:38:32.647Z,65.06
2018-08-28T02:41:00.410Z,64.61
2018-08-28T02:43:28.240Z,65.55
2018-08-28T02:45:55.923Z,64.83
2018-08-28T02:48:23.606Z,65.29
2018-08-28T02:50:51.683Z,65.65
2018-08-28T02:53:19.419Z,66.16
2018-08-28T02:55:47.082Z,65.91
2018-08-28T02:58:15.003Z,66.75
2018-08-28T03:00:42.668Z,66.62
2018-08-28T03:03:13.797Z,66.52
2018-08-28T03:05:41.455Z,65.32
2018-08-28T03:08:09.106Z,65.89
2018-08-28T03:10:36.799Z,66.16
2018-08-28T03:13:04.498Z,65.66
2018-08-28T03:15:32.603Z,65.35
2018-08-28T03:18:00.227Z,66.04
2018-08-28T03:20:27.882Z,65.91
2018-08-28T03:22:55.563Z,65.94
2018-08-28T03:25:23.207Z,65.03
2018-08-28T03:27:52.309Z,65.60
2018-08-28T03:30:20.095Z,66.41
2018-08-28T03:32:47.734Z,66.24
2018-08-28T03:35:15.507Z,66.78
2018-08-28T03:37:43.255Z,65.98
2018-08-28T03:40:10.936Z,66.12
2018-08-28T03:42:38.666Z,65.94
2018-08-28T03:45:06.370Z,65.34
2018-08-28T03:47:34.640Z,66.21
2018-08-28T03:50:02.644Z,66.67
2018-08-28T03:52:30.691Z,66.76
2018-08-28T03:54:58.494Z,66.26
2018-08-28T03:57:26.163Z,66.19
2018-08-28T03:59:53.879Z,66.04
2018-08-28T04:02:21.519Z,66.42
2018-08-28T04:04:49.179Z,66.01
2018-08-28T04:07:16.859Z,66.24
2018-08-28T04:09:44.860Z,65.75
2018-08-28T04:12:12.523Z,66.39
2018-08-28T04:14:40.227Z,66.03
2018-08-28T04:17:07.982Z,66.74
2018-08-28T04:19:35.690Z,66.65
2018-08-28T04:22:03.480Z,66.83
2018-08-28T04:24:31.146Z,66.18
2018-08-28T04:26:58.909Z,67.19
2018-08-28T04:29:26.571Z,66.58
2018-08-28T04:31:57.735Z,67.00
2018-08-28T04:34:25.465Z,67.17
2018-08-28T04:36:53.122Z,66.40
2018-08-28T04:39:21.088Z,66.95
2018-08-28T04:41:48.916Z,66.53
2018-08-28T04:44:16.578Z,66.03
2018-08-28T04:46:44.351Z,66.17
2018-08-28T04:49:12.023Z,66.07
2018-08-28T04:51:39.854Z,66.41
2018-08-28T04:54:07.565Z,67.04
2018-08-28T04:56:35.211Z,66.65
2018-08-28T04:59:02.970Z,67.38
2018-08-28T05:01:30.654Z,67.25
2018-08-28T05:03:58.340Z,66.81
2018-08-28T05:06:26.059Z,67.37
2018-08-28T05:08:53.743Z,66.65
2018-08-28T05:11:21.586Z,66.59
2018-08-28T05:13:49.538Z,66.90
2018-08-28T05:16:17.657Z,66.31
2018-08-28T05:18:45.383Z,66.67
2018-08-28T05:21:13.055Z,66.31
2018-08-28T05:23:40.795Z,66.72
2018-08-28T05:26:08.583Z,65.72
2018-08-28T05:28:36.468Z,66.45
2018-08-28T05:31:04.371Z,66.20
2018-08-28T05:33:32.047Z,66.45
2018-08-28T05:35:59.743Z,67.37
2018-08-28T05:38:28.539Z,67.87
2018-08-28T05:40:56.191Z,67.69
2018-08-28T05:43:23.931Z,68.25
2018-08-28T05:45:51.570Z,68.49
2018-08-28T05:48:19.286Z,67.86
2018-08-28T05:50:46.991Z,67.91
2018-08-28T05:53:14.691Z,67.27
2018-08-28T05:55:42.419Z,66.93
2018-08-28T05:58:10.128Z,66.64
2018-08-28T06:00:37.808Z,67.45
2018-08-28T06:03:05.565Z,67.24
2018-08-28T06:05:33.215Z,66.82
2018-08-28T06:08:01.408Z,66.63
2018-08-28T06:10:33.026Z,66.89
2018-08-28T06:13:00.735Z,66.65
2018-08-28T06:15:28.467Z,67.08
2018-08-28T06:17:56.244Z,66.85
2018-08-28T06:20:24.025Z,66.67
2018-08-28T06:22:51.804Z,67.32
2018-08-28T06:25:19.482Z,67.12
2018-08-28T06:27:47.199Z,68.03
2018-08-28T06:30:15.074Z,68.07
2018-08-28T06:32:42.758Z,67.92
2018-08-28T06:35:10.466Z,68.08
2018-08-28T06:37:38.196Z,67.14
2018-08-28T06:40:06.030Z,67.67
2018-08-28T06:42:33.829Z,67.35
2018-08-28T06:45:01.632Z,67.87
2018-08-28T06:47:29.291Z,67.71
2018-08-28T06:49:57.072Z,67.95
2018-08-28T06:52:24.746Z,67.53
2018-08-28T06:54:52.475Z,67.90
2018-08-28T06:57:20.303Z,67.40
2018-08-28T06:59:48.347Z,67.47
2018-08-28T07:02:16.085Z,67.78
2018-08-28T07:04:43.727Z,67.20
2018-08-28T07:07:11.556Z,66.78
2018-08-28T07:09:39.275Z,66.80
2018-08-28T07:12:07.367Z,67.23
2018-08-28T07:14:35.123Z,66.87
2018-08-28T07:17:02.887Z,65.84
2018-08-28T07:19:30.654Z,66.67
2018-08-28T07:21:58.444Z,65.68
2018-08-28T07:24:26.139Z,66.33
2018-08-28T07:26:54.928Z,65.92
2018-08-28T07:29:22.599Z,65.40
2018-08-28T07:31:50.473Z,65.87
2018-08-28T07:34:18.038Z,65.71
2018-08-28T07:36:45.694Z,65.60
2018-08-28T07:39:13.396Z,66.07
2018-08-28T07:41:41.133Z,66.19
2018-08-28T07:44:08.810Z,65.28
2018-08-28T07:46:42.598Z,65.68
2018-08-28T07:49:10.273Z,65.94
2018-08-28T07:51:38.018Z,66.71
2018-08-28T07:54:05.777Z,66.70
2018-08-28T07:56:33.842Z,67.23
2018-08-28T07:59:01.556Z,67.17
2018-08-28T08:01:29.314Z,66.66
2018-08-28T08:03:57.602Z,67.18
2018-08-28T08:06:25.298Z,66.47
2018-08-28T08:08:53.032Z,66.66
2018-08-28T08:11:20.745Z,66.04
2018-08-28T08:13:48.534Z,66.38
2018-08-28T08:16:16.387Z,66.03
2018-08-28T08:18:44.146Z,65.96
2018-08-28T08:21:11.764Z,66.45
2018-08-28T08:23:39.423Z,66.37
2018-08-28T08:26:07.159Z,66.16
2018-08-28T08:28:34.810Z,65.52
2018-08-28T08:31:02.635Z,65.70
2018-08-28T08:33:30.310Z,65.56
2018-08-28T08:35:58.473Z,64.62
2018-08-28T08:38:26.170Z,65.27
2018-08-28T08:40:53.823Z,65.20
2018-08-28T08:43:21.518Z,64.59
2018-08-28T08:45:49.167Z,64.69
2018-08-28T08:48:17.128Z,64.41
2018-08-28T08:50:45.854Z,63.80
2018-08-28T08:53:13.482Z,64.98
2018-08-28T08:55:41.311Z,64.12
2018-08-28T08:58:09.335Z,62.52
2018-08-28T09:00:36.957Z,63.07
2018-08-28T09:03:04.851Z,62.52
2018-08-28T09:05:32.513Z,61.44
2018-08-28T09:08:00.652Z,61.24
2018-08-28T09:10:28.324Z,61.41
2018-08-28T09:12:55.929Z,60.56
2018-08-28T09:15:23.902Z,60.80
2018-08-28T09:17:51.519Z,60.39
2018-08-28T09:20:19.166Z,59.37
2018-08-28T09:22:46.877Z,59.42
2018-08-28T09:25:14.496Z,59.58
2018-08-28T09:27:42.342Z,59.17
2018-08-28T09:30:10.259Z,58.91
2018-08-28T09:35:05.049Z,57.59
2018-08-28T09:37:32.710Z,57.91
2018-08-28T09:40:00.346Z,56.05
2018-08-28T09:42:28.349Z,56.59
2018-08-28T09:44:55.962Z,55.81
2018-08-28T09:47:23.590Z,55.53
2018-08-28T09:49:51.406Z,54.76
2018-08-28T09:52:20.539Z,55.64
2018-08-28T09:54:48.197Z,54.63
2018-08-28T09:57:15.873Z,54.60
2018-08-28T09:59:43.527Z,54.64
2018-08-28T10:02:11.205Z,55.32
2018-08-28T10:04:38.949Z,54.53
2018-08-28T10:07:06.595Z,53.77
2018-08-28T10:09:34.247Z,53.89
2018-08-28T10:12:02.134Z,53.65
2018-08-28T10:14:29.778Z,54.04
2018-08-28T10:16:57.436Z,52.78
2018-08-28T10:19:25.123Z,53.35
2018-08-28T10:21:53.173Z,53.41
2018-08-28T10:24:20.826Z,53.06
2018-08-28T10:26:48.534Z,52.44
2018-08-28T10:29:17.588Z,53.26
2018-08-28T10:31:45.325Z,53.46
2018-08-28T10:34:16.890Z,52.28
2018-08-28T10:36:44.659Z,52.12
2018-08-28T10:39:12.313Z,51.96
2018-08-28T10:41:40.118Z,52.34
2018-08-28T10:44:07.812Z,51.80
2018-08-28T10:46:35.581Z,52.51
2018-08-28T10:49:03.186Z,52.39
2018-08-28T10:51:30.910Z,51.26
2018-08-28T10:53:58.789Z,51.74
2018-08-28T10:56:26.453Z,51.62
2018-08-28T10:58:54.150Z,51.70
2018-08-28T11:01:22.110Z,50.48
2018-08-28T11:03:49.798Z,51.00
2018-08-28T11:06:18.485Z,50.97
2018-08-28T11:08:46.517Z,50.11
2018-08-28T11:11:14.127Z,50.06
2018-08-28T11:13:41.796Z,50.83
2018-08-28T11:16:09.816Z,49.94
2018-08-28T11:18:37.426Z,50.16
2018-08-28T11:21:05.118Z,49.28
2018-08-28T11:23:32.805Z,49.14
2018-08-28T11:26:00.626Z,49.14
2018-08-28T11:28:28.296Z,49.31
2018-08-28T11:30:56.054Z,49.08
2018-08-28T11:33:23.733Z,49.40
2018-08-28T11:35:51.575Z,47.43
2018-08-28T11:38:19.138Z,49.12
2018-08-28T11:40:46.704Z,48.23
2018-08-28T11:43:14.341Z,48.11
2018-08-28T11:45:41.966Z,48.20
2018-08-28T11:48:09.593Z,48.10
2018-08-28T11:50:37.493Z,48.12
2018-08-28T11:53:05.185Z,47.25
2018-08-28T11:55:32.774Z,46.70
2018-08-28T11:58:00.427Z,47.65
2018-08-28T12:00:28.046Z,47.83
2018-08-28T12:02:55.698Z,47.61
2018-08-28T12:05:23.371Z,47.13
2018-08-28T12:07:51.062Z,47.52
2018-08-28T12:10:18.758Z,47.68
2018-08-28T12:12:46.411Z,47.74
2018-08-28T12:15:14.062Z,46.29
2018-08-28T12:17:41.742Z,46.82
2018-08-28T12:20:10.213Z,47.57
2018-08-28T12:22:37.842Z,47.43
2018-08-28T12:25:05.950Z,45.72
2018-08-28T12:27:33.601Z,46.35
2018-08-28T12:30:01.418Z,47.66
2018-08-28T12:32:29.321Z,45.60
2018-08-28T12:34:57.673Z,47.30
2018-08-28T12:37:25.305Z,46.71
2018-08-28T12:39:53.186Z,45.48
2018-08-28T12:42:20.876Z,47.56
2018-08-28T12:44:48.538Z,45.84
2018-08-28T12:47:16.305Z,46.70
2018-08-28T12:49:43.921Z,46.56
2018-08-28T12:52:11.763Z,45.70
2018-08-28T12:54:39.467Z,45.49
2018-08-28T12:57:07.265Z,45.30
2018-08-28T12:59:34.978Z,45.38
2018-08-28T13:02:03.078Z,45.06
2018-08-28T13:04:30.711Z,45.55
2018-08-28T13:06:58.428Z,46.61
2018-08-28T13:09:26.085Z,46.32
2018-08-28T13:11:53.820Z,45.86
2018-08-28T13:14:21.544Z,45.72
2018-08-28T13:16:49.194Z,44.69
2018-08-28T13:19:16.873Z,44.13
2018-08-28T13:21:44.585Z,44.99
2018-08-28T13:24:12.313Z,45.56
2018-08-28T13:26:40.025Z,45.59
2018-08-28T13:29:07.677Z,45.00
2018-08-28T13:34:09.953Z,44.33
2018-08-28T13:36:37.597Z,44.33
2018-08-28T13:39:05.833Z,45.52
2018-08-28T13:41:33.482Z,45.30
2018-08-28T13:44:01.163Z,45.28
2018-08-28T13:46:29.094Z,44.86
2018-08-28T13:48:56.877Z,44.45
2018-08-28T13:51:24.565Z,44.12
2018-08-28T13:53:52.841Z,43.76
2018-08-28T13:56:20.457Z,44.16
2018-08-28T13:58:48.161Z,43.73
2018-08-28T14:01:16.113Z,43.64
2018-08-28T14:03:43.798Z,43.69
2018-08-28T14:06:11.619Z,43.03
2018-08-28T14:08:39.410Z,42.72
2018-08-28T14:11:07.893Z,43.86
2018-08-28T14:13:35.558Z,42.74
2018-08-28T14:16:03.596Z,42.81
2018-08-28T14:18:31.266Z,43.45
2018-08-28T14:20:58.905Z,43.46
2018-08-28T14:23:26.658Z,43.58
2018-08-28T14:25:54.462Z,42.75
2018-08-28T14:28:22.161Z,42.02
2018-08-28T14:30:49.829Z,43.39
2018-08-28T14:33:17.509Z,43.35
2018-08-28T14:35:45.199Z,42.99
2018-08-28T14:38:14.806Z,42.94
2018-08-28T14:40:43.171Z,43.53
2018-08-28T14:43:11.626Z,43.38
2018-08-28T14:45:39.701Z,42.59
2018-08-28T14:48:07.406Z,42.48
2018-08-28T14:50:36.100Z,43.48
2018-08-28T14:53:03.688Z,43.32
2018-08-28T14:55:31.401Z,43.53
2018-08-28T14:57:59.592Z,43.21
2018-08-28T15:00:27.307Z,42.20
2018-08-28T15:02:54.989Z,41.88
2018-08-28T15:05:22.904Z,42.13
2018-08-28T15:07:50.582Z,42.62
2018-08-28T15:10:18.390Z,42.99
2018-08-28T15:12:46.156Z,43.37
2018-08-28T15:15:13.852Z,44.02
2018-08-28T15:17:41.594Z,43.49
2018-08-28T15:20:09.394Z,43.94
2018-08-28T15:22:37.164Z,42.98
2018-08-28T15:25:05.804Z,44.10
2018-08-28T15:27:33.572Z,42.95
2018-08-28T15:30:01.359Z,43.88
2018-08-28T15:32:29.124Z,42.69
2018-08-28T15:35:00.229Z,43.12
2018-08-28T15:37:27.925Z,43.29
2018-08-28T15:39:55.585Z,42.88
2018-08-28T15:42:23.246Z,43.24
2018-08-28T15:44:50.882Z,42.57
2018-08-28T15:47:18.535Z,43.05
2018-08-28T15:49:46.252Z,42.31
2018-08-28T15:52:13.925Z,42.91
2018-08-28T15:54:41.589Z,41.99
2018-08-28T15:57:09.337Z,42.33
2018-08-28T15:59:36.974Z,42.58
2018-08-28T16:02:04.731Z,42.28
2018-08-28T16:04:32.345Z,42.22
2018-08-28T16:06:59.969Z,41.93
2018-08-28T16:09:27.591Z,41.65
2018-08-28T16:11:55.250Z,42.60
2018-08-28T16:14:22.905Z,42.23
2018-08-28T16:16:50.543Z,42.57
2018-08-28T16:19:18.181Z,43.46
2018-08-28T16:21:47.989Z,42.58
2018-08-28T16:24:15.692Z,42.95
2018-08-28T16:26:43.361Z,42.00
2018-08-28T16:29:11.170Z,42.83
2018-08-28T16:31:38.891Z,42.17
2018-08-28T16:34:08.425Z,43.06
2018-08-28T16:36:36.150Z,42.42
2018-08-28T16:39:05.289Z,42.95
2018-08-28T16:41:33.047Z,43.46
2018-08-28T16:44:01.069Z,43.09
2018-08-28T16:46:31.973Z,43.89
2018-08-28T16:48:59.770Z,43.51
2018-08-28T16:51:27.925Z,43.50
2018-08-28T16:53:55.567Z,43.48
2018-08-28T16:56:23.269Z,44.13
2018-08-28T16:58:50.940Z,44.11
2018-08-28T17:01:18.621Z,43.45
2018-08-28T17:03:46.290Z,43.26
2018-08-28T17:06:14.227Z,42.68
2018-08-28T17:08:41.905Z,43.90
2018-08-28T17:11:09.574Z,42.86
2018-08-28T17:13:37.509Z,43.09
2018-08-28T17:16:05.264Z,42.79
2018-08-28T17:18:32.889Z,43.61
2018-08-28T17:21:00.698Z,43.41
2018-08-28T17:23:28.321Z,42.91
2018-08-28T17:25:56.040Z,43.25
2018-08-28T17:28:23.681Z,44.60
2018-08-28T17:30:51.389Z,43.88
2018-08-28T17:33:19.344Z,44.05
2018-08-28T17:35:46.993Z,43.30
2018-08-28T17:38:14.630Z,44.29
2018-08-28T17:40:42.295Z,43.24
2018-08-28T17:43:09.922Z,44.43
2018-08-28T17:45:37.605Z,44.15
2018-08-28T17:48:09.254Z,45.40
2018-08-28T17:50:36.943Z,44.20
2018-08-28T17:53:04.638Z,44.90
2018-08-28T17:55:32.302Z,44.38
2018-08-28T17:58:00.261Z,44.75
2018-08-28T18:00:27.893Z,44.53
2018-08-28T18:02:55.813Z,45.36
2018-08-28T18:05:23.436Z,45.55
2018-08-28T18:07:51.078Z,45.93
2018-08-28T18:10:18.726Z,45.82
2018-08-28T18:12:46.628Z,45.56
2018-08-28T18:15:14.338Z,45.00
2018-08-28T18:17:42.034Z,45.16
2018-08-28T18:20:09.689Z,46.24
2018-08-28T18:22:37.460Z,46.55
2018-08-28T18:25:05.717Z,46.23
2018-08-28T18:27:33.429Z,46.73
2018-08-28T18:30:01.456Z,45.97
2018-08-28T18:32:29.415Z,46.82
2018-08-28T18:34:57.113Z,47.05
2018-08-28T18:37:25.695Z,47.01
2018-08-28T18:39:53.438Z,46.36
2018-08-28T18:42:21.241Z,46.81
2018-08-28T18:44:48.934Z,47.13
2018-08-28T18:47:16.740Z,47.79
2018-08-28T18:49:44.418Z,47.34
2018-08-28T18:52:12.105Z,47.46
2018-08-28T18:54:39.880Z,47.78
2018-08-28T18:57:07.609Z,47.63
2018-08-28T18:59:35.337Z,47.72
2018-08-28T19:02:02.998Z,47.19
2018-08-28T19:04:30.769Z,47.58
2018-08-28T19:06:58.441Z,48.20
2018-08-28T19:09:26.273Z,47.80
2018-08-28T19:11:54.886Z,47.19
2018-08-28T19:14:23.499Z,47.32
2018-08-28T19:16:51.205Z,48.13
2018-08-28T19:19:18.874Z,47.54
2018-08-28T19:21:46.537Z,47.52
2018-08-28T19:24:14.181Z,47.76
2018-08-28T19:26:42.237Z,48.15
2018-08-28T19:29:10.237Z,47.63
2018-08-28T19:31:37.915Z,47.49
2018-08-28T19:34:05.858Z,47.47
2018-08-28T19:36:33.569Z,47.65
2018-08-28T19:39:01.583Z,48.38
2018-08-28T19:41:29.425Z,47.69
2018-08-28T19:43:57.230Z,48.43
2018-08-28T19:46:24.913Z,48.63
2018-08-28T19:48:52.558Z,47.79
2018-08-28T19:51:20.448Z,48.55
2018-08-28T19:53:48.249Z,47.85
2018-08-28T19:56:16.161Z,48.50
2018-08-28T19:58:43.809Z,48.76
2018-08-28T20:01:11.498Z,48.70
2018-08-28T20:03:39.174Z,48.93
2018-08-28T20:06:06.869Z,48.75
2018-08-28T20:08:34.639Z,47.85
2018-08-28T20:11:02.617Z,48.28
2018-08-28T20:13:30.365Z,48.83
2018-08-28T20:15:58.109Z,48.58
2018-08-28T20:18:25.806Z,49.16
2018-08-28T20:20:53.518Z,48.93
2018-08-28T20:23:21.169Z,49.53
2018-08-28T20:25:48.829Z,49.36
2018-08-28T20:28:16.520Z,49.50
2018-08-28T20:30:44.241Z,49.93
2018-08-28T20:33:11.909Z,49.84
2018-08-28T20:35:39.639Z,50.93
2018-08-28T20:38:07.310Z,50.31
2018-08-28T20:40:34.989Z,50.07
2018-08-28T20:43:02.674Z,50.94
2018-08-28T20:45:30.345Z,50.22
2018-08-28T20:47:58.078Z,50.18
2018-08-28T20:50:25.725Z,50.60
2018-08-28T20:52:53.405Z,50.23
2018-08-28T20:55:21.093Z,51.02
2018-08-28T20:57:48.805Z,51.15
2018-08-28T21:00:16.482Z,50.94
2018-08-28T21:02:44.293Z,50.54
2018-08-28T21:05:12.109Z,51.45
2018-08-28T21:07:39.758Z,52.09
2018-08-28T21:10:07.593Z,51.63
2018-08-28T21:12:35.262Z,52.31
2018-08-28T21:15:03.009Z,53.31
2018-08-28T21:17:31.658Z,52.16
2018-08-28T21:19:59.321Z,53.12
2018-08-28T21:22:27.036Z,52.62
2018-08-28T21:24:54.685Z,52.85
2018-08-28T21:27:22.371Z,53.68
2018-08-28T21:29:51.019Z,53.66
2018-08-28T21:32:18.669Z,53.50
2018-08-28T21:34:46.435Z,53.22
2018-08-28T21:37:14.089Z,53.72
2018-08-28T21:39:41.766Z,52.72
2018-08-28T21:42:09.490Z,52.88
2018-08-28T21:44:37.140Z,53.81
2018-08-28T21:47:04.786Z,54.38
2018-08-28T21:49:32.444Z,53.90
2018-08-28T21:52:00.162Z,54.37
2018-08-28T21:54:27.842Z,53.67
2018-08-28T21:56:55.530Z,54.26
2018-08-28T21:59:23.297Z,53.71
2018-08-28T22:01:51.378Z,53.99
2018-08-28T22:04:19.103Z,54.42
2018-08-28T22:06:52.504Z,55.03
2018-08-28T22:09:20.167Z,54.65
2018-08-28T22:11:49.869Z,54.91
2018-08-28T22:14:17.537Z,54.26
2018-08-28T22:16:45.222Z,53.81
2018-08-28T22:19:12.893Z,54.25
2018-08-28T22:21:40.541Z,55.27
2018-08-28T22:24:08.177Z,55.21
2018-08-28T22:26:35.787Z,54.76
2018-08-28T22:29:03.406Z,55.18
2018-08-28T22:31:31.062Z,55.63
2018-08-28T22:33:58.665Z,54.82
2018-08-28T22:36:26.402Z,55.55
2018-08-28T22:38:54.015Z,55.91
2018-08-28T22:41:21.606Z,55.96
2018-08-28T22:43:49.540Z,55.66
2018-08-28T22:46:17.142Z,55.47
2018-08-28T22:48:44.727Z,56.06
2018-08-28T22:51:12.398Z,55.40
2018-08-28T22:53:40.010Z,56.40
2018-08-28T22:56:07.609Z,56.17
2018-08-28T22:58:35.335Z,55.68
2018-08-28T23:01:12.400Z,56.47
2018-08-28T23:03:43.423Z,56.50
2018-08-28T23:06:11.058Z,56.19
2018-08-28T23:08:39.055Z,55.40
2018-08-28T23:11:06.910Z,56.02
2018-08-28T23:13:34.701Z,56.20
2018-08-28T23:16:03.810Z,55.87
2018-08-28T23:18:32.925Z,57.14
2018-08-28T23:21:06.236Z,57.30
2018-08-28T23:23:34.973Z,57.88
2018-08-28T23:32:29.703Z,58.07
2018-08-28T23:35:03.050Z,58.35
2018-08-28T23:37:30.735Z,58.46
2018-08-28T23:39:58.754Z,57.16
2018-08-28T23:42:26.542Z,57.45
2018-08-28T23:44:54.339Z,57.40
2018-08-28T23:47:22.000Z,57.16
2018-08-28T23:49:49.663Z,57.38
2018-08-28T23:52:17.302Z,58.00
2018-08-28T23:54:44.996Z,58.26
2018-08-28T23:57:12.712Z,58.44
2018-08-28T23:59:40.445Z,58.22
